sensor_id;sensor_type;location;lat;lon;timestamp;P1;durP1;ratioP1;P2;durP2;ratioP2
3789;SDS011;1910;49.042;9.028;2022-07-06T00:00:27;5.50;;;2.80;;
3789;SDS011;1910;49.042;9.028;2022-07-06T00:02:52;7.33;;;3.27;;
3789;SDS011;1910;49.042;9.028;2022-07-06T00:05:18;3.30;;;3.00;;
3789;SDS011;1910;49.042;9.028;2022-07-06T00:07:43;5.20;;;2.57;;
3789;SDS011;1910;49.042;9.028;2022-07-06T00:10:08;5.00;;;2.80;;
3789;SDS011;1910;49.042;9.028;2022-07-06T00:12:34;4.37;;;3.07;;
3789;SDS011;1910;49.042;9.028;2022-07-06T00:15:00;4.83;;;2.93;;
3789;SDS011;1910;49.042;9.028;2022-07-06T00:17:25;5.37;;;3.20;;
3789;SDS011;1910;49.042;9.028;2022-07-06T00:19:51;2.97;;;2.67;;
3789;SDS011;1910;49.042;9.028;2022-07-06T00:22:16;9.77;;;3.13;;
3789;SDS011;1910;49.042;9.028;2022-07-06T00:24:42;4.70;;;3.10;;
3789;SDS011;1910;49.042;9.028;2022-07-06T00:27:07;4.27;;;2.97;;
3789;SDS011;1910;49.042;9.028;2022-07-06T00:29:33;3.63;;;2.90;;
3789;SDS011;1910;49.042;9.028;2022-07-06T00:31:58;5.10;;;2.63;;
3789;SDS011;1910;49.042;9.028;2022-07-06T00:34:24;3.90;;;2.40;;
3789;SDS011;1910;49.042;9.028;2022-07-06T00:36:49;3.40;;;2.60;;
3789;SDS011;1910;49.042;9.028;2022-07-06T00:39:15;5.50;;;2.83;;
3789;SDS011;1910;49.042;9.028;2022-07-06T00:41:40;3.00;;;2.73;;
3789;SDS011;1910;49.042;9.028;2022-07-06T00:44:09;4.40;;;2.50;;
3789;SDS011;1910;49.042;9.028;2022-07-06T00:46:35;10.80;;;2.60;;
3789;SDS011;1910;49.042;9.028;2022-07-06T00:49:01;7.17;;;3.13;;
3789;SDS011;1910;49.042;9.028;2022-07-06T00:51:31;3.80;;;2.50;;
3789;SDS011;1910;49.042;9.028;2022-07-06T00:53:59;3.67;;;2.50;;
3789;SDS011;1910;49.042;9.028;2022-07-06T00:56:27;7.07;;;2.97;;
3789;SDS011;1910;49.042;9.028;2022-07-06T00:58:55;6.47;;;2.63;;
3789;SDS011;1910;49.042;9.028;2022-07-06T01:01:21;3.20;;;2.37;;
3789;SDS011;1910;49.042;9.028;2022-07-06T01:03:47;4.83;;;2.60;;
3789;SDS011;1910;49.042;9.028;2022-07-06T01:06:12;5.70;;;2.40;;
3789;SDS011;1910;49.042;9.028;2022-07-06T01:08:38;4.30;;;2.17;;
3789;SDS011;1910;49.042;9.028;2022-07-06T01:11:04;3.23;;;2.27;;
3789;SDS011;1910;49.042;9.028;2022-07-06T01:13:30;5.03;;;2.40;;
3789;SDS011;1910;49.042;9.028;2022-07-06T01:15:57;3.83;;;2.13;;
3789;SDS011;1910;49.042;9.028;2022-07-06T01:18:23;3.60;;;3.20;;
3789;SDS011;1910;49.042;9.028;2022-07-06T01:20:49;4.37;;;2.47;;
3789;SDS011;1910;49.042;9.028;2022-07-06T01:23:14;5.70;;;2.43;;
3789;SDS011;1910;49.042;9.028;2022-07-06T01:25:40;2.93;;;2.70;;
3789;SDS011;1910;49.042;9.028;2022-07-06T01:28:05;4.43;;;2.67;;
3789;SDS011;1910;49.042;9.028;2022-07-06T01:30:31;3.30;;;2.50;;
3789;SDS011;1910;49.042;9.028;2022-07-06T01:32:57;4.10;;;2.07;;
3789;SDS011;1910;49.042;9.028;2022-07-06T01:35:22;6.60;;;2.87;;
3789;SDS011;1910;49.042;9.028;2022-07-06T01:37:51;3.10;;;2.80;;
3789;SDS011;1910;49.042;9.028;2022-07-06T01:40:16;4.80;;;2.60;;
3789;SDS011;1910;49.042;9.028;2022-07-06T01:42:42;3.40;;;2.13;;
3789;SDS011;1910;49.042;9.028;2022-07-06T01:45:08;8.97;;;2.20;;
3789;SDS011;1910;49.042;9.028;2022-07-06T01:47:34;4.60;;;2.73;;
3789;SDS011;1910;49.042;9.028;2022-07-06T01:50:00;6.17;;;3.07;;
3789;SDS011;1910;49.042;9.028;2022-07-06T01:52:28;5.30;;;3.10;;
3789;SDS011;1910;49.042;9.028;2022-07-06T01:54:55;7.60;;;2.70;;
3789;SDS011;1910;49.042;9.028;2022-07-06T01:57:21;3.53;;;3.10;;
3789;SDS011;1910;49.042;9.028;2022-07-06T01:59:46;3.60;;;2.20;;
3789;SDS011;1910;49.042;9.028;2022-07-06T02:02:12;4.90;;;2.63;;
3789;SDS011;1910;49.042;9.028;2022-07-06T02:04:38;7.03;;;2.90;;
3789;SDS011;1910;49.042;9.028;2022-07-06T02:07:04;3.70;;;2.93;;
3789;SDS011;1910;49.042;9.028;2022-07-06T02:09:29;9.33;;;3.23;;
3789;SDS011;1910;49.042;9.028;2022-07-06T02:11:55;3.67;;;2.90;;
3789;SDS011;1910;49.042;9.028;2022-07-06T02:14:20;6.77;;;2.80;;
3789;SDS011;1910;49.042;9.028;2022-07-06T02:16:46;6.63;;;3.10;;
3789;SDS011;1910;49.042;9.028;2022-07-06T02:19:11;6.43;;;3.30;;
3789;SDS011;1910;49.042;9.028;2022-07-06T02:21:37;8.70;;;2.70;;
3789;SDS011;1910;49.042;9.028;2022-07-06T02:24:02;5.00;;;2.60;;
3789;SDS011;1910;49.042;9.028;2022-07-06T02:26:28;2.60;;;2.30;;
3789;SDS011;1910;49.042;9.028;2022-07-06T02:28:54;10.70;;;3.23;;
3789;SDS011;1910;49.042;9.028;2022-07-06T02:31:19;4.43;;;3.00;;
3789;SDS011;1910;49.042;9.028;2022-07-06T02:33:45;5.13;;;2.60;;
3789;SDS011;1910;49.042;9.028;2022-07-06T02:36:10;3.20;;;2.90;;
3789;SDS011;1910;49.042;9.028;2022-07-06T02:38:36;6.77;;;3.43;;
3789;SDS011;1910;49.042;9.028;2022-07-06T02:41:01;3.83;;;2.70;;
3789;SDS011;1910;49.042;9.028;2022-07-06T02:43:27;10.90;;;3.83;;
3789;SDS011;1910;49.042;9.028;2022-07-06T02:45:52;3.50;;;3.20;;
3789;SDS011;1910;49.042;9.028;2022-07-06T02:51:40;7.67;;;3.27;;
3789;SDS011;1910;49.042;9.028;2022-07-06T02:54:06;3.13;;;2.83;;
3789;SDS011;1910;49.042;9.028;2022-07-06T02:56:31;5.00;;;3.50;;
3789;SDS011;1910;49.042;9.028;2022-07-06T02:58:57;4.17;;;2.43;;
3789;SDS011;1910;49.042;9.028;2022-07-06T03:01:22;6.77;;;3.70;;
3789;SDS011;1910;49.042;9.028;2022-07-06T03:03:48;4.53;;;2.50;;
3789;SDS011;1910;49.042;9.028;2022-07-06T03:06:13;4.00;;;2.90;;
3789;SDS011;1910;49.042;9.028;2022-07-06T03:08:39;3.43;;;3.00;;
3789;SDS011;1910;49.042;9.028;2022-07-06T03:11:04;4.23;;;2.87;;
3789;SDS011;1910;49.042;9.028;2022-07-06T03:13:31;7.20;;;3.50;;
3789;SDS011;1910;49.042;9.028;2022-07-06T03:15:57;8.40;;;2.57;;
3789;SDS011;1910;49.042;9.028;2022-07-06T03:18:22;6.23;;;3.10;;
3789;SDS011;1910;49.042;9.028;2022-07-06T03:20:48;4.50;;;3.10;;
3789;SDS011;1910;49.042;9.028;2022-07-06T03:23:13;3.60;;;3.20;;
3789;SDS011;1910;49.042;9.028;2022-07-06T03:25:39;4.27;;;2.80;;
3789;SDS011;1910;49.042;9.028;2022-07-06T03:28:04;3.63;;;2.60;;
3789;SDS011;1910;49.042;9.028;2022-07-06T03:30:30;4.20;;;3.50;;
3789;SDS011;1910;49.042;9.028;2022-07-06T03:32:55;6.00;;;3.60;;
3789;SDS011;1910;49.042;9.028;2022-07-06T03:35:21;3.60;;;3.30;;
3789;SDS011;1910;49.042;9.028;2022-07-06T03:37:46;4.23;;;3.00;;
3789;SDS011;1910;49.042;9.028;2022-07-06T03:40:12;9.13;;;3.03;;
3789;SDS011;1910;49.042;9.028;2022-07-06T03:42:38;4.20;;;3.37;;
3789;SDS011;1910;49.042;9.028;2022-07-06T03:45:04;5.37;;;3.60;;
3789;SDS011;1910;49.042;9.028;2022-07-06T03:47:30;9.67;;;3.63;;
3789;SDS011;1910;49.042;9.028;2022-07-06T03:49:56;4.50;;;2.87;;
3789;SDS011;1910;49.042;9.028;2022-07-06T03:52:21;7.10;;;3.63;;
3789;SDS011;1910;49.042;9.028;2022-07-06T03:54:47;7.70;;;3.30;;
3789;SDS011;1910;49.042;9.028;2022-07-06T03:57:12;3.47;;;3.17;;
3789;SDS011;1910;49.042;9.028;2022-07-06T03:59:38;5.30;;;3.53;;
3789;SDS011;1910;49.042;9.028;2022-07-06T04:02:05;4.03;;;3.63;;
3789;SDS011;1910;49.042;9.028;2022-07-06T04:04:30;4.00;;;3.57;;
3789;SDS011;1910;49.042;9.028;2022-07-06T04:06:58;11.23;;;4.20;;
3789;SDS011;1910;49.042;9.028;2022-07-06T04:09:23;9.50;;;4.67;;
3789;SDS011;1910;49.042;9.028;2022-07-06T04:11:49;4.90;;;3.73;;
3789;SDS011;1910;49.042;9.028;2022-07-06T04:14:14;4.43;;;3.70;;
3789;SDS011;1910;49.042;9.028;2022-07-06T04:16:40;8.90;;;4.50;;
3789;SDS011;1910;49.042;9.028;2022-07-06T04:19:05;6.57;;;5.07;;
3789;SDS011;1910;49.042;9.028;2022-07-06T04:21:31;15.70;;;5.67;;
3789;SDS011;1910;49.042;9.028;2022-07-06T04:23:56;7.40;;;3.70;;
3789;SDS011;1910;49.042;9.028;2022-07-06T04:26:22;4.40;;;3.00;;
3789;SDS011;1910;49.042;9.028;2022-07-06T04:28:48;7.07;;;3.80;;
3789;SDS011;1910;49.042;9.028;2022-07-06T04:31:13;7.20;;;4.30;;
3789;SDS011;1910;49.042;9.028;2022-07-06T04:33:40;4.23;;;3.63;;
3789;SDS011;1910;49.042;9.028;2022-07-06T04:36:07;4.30;;;3.70;;
3789;SDS011;1910;49.042;9.028;2022-07-06T04:38:32;5.50;;;3.80;;
3789;SDS011;1910;49.042;9.028;2022-07-06T04:40:58;5.47;;;2.90;;
3789;SDS011;1910;49.042;9.028;2022-07-06T04:43:23;7.97;;;4.00;;
3789;SDS011;1910;49.042;9.028;2022-07-06T04:45:49;4.20;;;3.70;;
3789;SDS011;1910;49.042;9.028;2022-07-06T04:48:14;6.00;;;3.33;;
3789;SDS011;1910;49.042;9.028;2022-07-06T04:50:40;8.10;;;4.13;;
3789;SDS011;1910;49.042;9.028;2022-07-06T04:53:06;11.33;;;3.90;;
3789;SDS011;1910;49.042;9.028;2022-07-06T04:55:31;7.33;;;4.80;;
3789;SDS011;1910;49.042;9.028;2022-07-06T04:57:57;5.43;;;3.67;;
3789;SDS011;1910;49.042;9.028;2022-07-06T05:00:22;3.87;;;3.50;;
3789;SDS011;1910;49.042;9.028;2022-07-06T05:02:48;5.50;;;3.77;;
3789;SDS011;1910;49.042;9.028;2022-07-06T05:05:13;4.40;;;3.20;;
3789;SDS011;1910;49.042;9.028;2022-07-06T05:07:39;7.47;;;4.23;;
3789;SDS011;1910;49.042;9.028;2022-07-06T05:10:08;8.17;;;4.10;;
3789;SDS011;1910;49.042;9.028;2022-07-06T05:12:35;4.60;;;3.73;;
3789;SDS011;1910;49.042;9.028;2022-07-06T05:15:00;4.90;;;3.23;;
3789;SDS011;1910;49.042;9.028;2022-07-06T05:17:26;10.40;;;4.80;;
3789;SDS011;1910;49.042;9.028;2022-07-06T05:19:52;7.23;;;4.40;;
3789;SDS011;1910;49.042;9.028;2022-07-06T05:22:17;5.47;;;3.80;;
3789;SDS011;1910;49.042;9.028;2022-07-06T05:24:43;7.20;;;4.90;;
3789;SDS011;1910;49.042;9.028;2022-07-06T05:27:09;9.53;;;4.60;;
3789;SDS011;1910;49.042;9.028;2022-07-06T05:29:35;5.30;;;4.27;;
3789;SDS011;1910;49.042;9.028;2022-07-06T05:32:01;5.57;;;4.03;;
3789;SDS011;1910;49.042;9.028;2022-07-06T05:34:27;5.23;;;3.63;;
3789;SDS011;1910;49.042;9.028;2022-07-06T05:36:52;4.37;;;3.80;;
3789;SDS011;1910;49.042;9.028;2022-07-06T05:39:18;6.70;;;3.43;;
3789;SDS011;1910;49.042;9.028;2022-07-06T05:41:46;6.03;;;4.37;;
3789;SDS011;1910;49.042;9.028;2022-07-06T05:44:12;5.33;;;4.10;;
3789;SDS011;1910;49.042;9.028;2022-07-06T05:46:38;6.43;;;3.90;;
3789;SDS011;1910;49.042;9.028;2022-07-06T05:49:03;4.23;;;3.80;;
3789;SDS011;1910;49.042;9.028;2022-07-06T05:51:47;10.70;;;4.70;;
3789;SDS011;1910;49.042;9.028;2022-07-06T05:54:14;4.07;;;3.37;;
3789;SDS011;1910;49.042;9.028;2022-07-06T05:56:40;9.33;;;4.93;;
3789;SDS011;1910;49.042;9.028;2022-07-06T05:59:05;4.13;;;3.60;;
3789;SDS011;1910;49.042;9.028;2022-07-06T06:01:31;9.20;;;4.10;;
3789;SDS011;1910;49.042;9.028;2022-07-06T06:03:56;6.03;;;3.50;;
3789;SDS011;1910;49.042;9.028;2022-07-06T06:06:22;10.40;;;4.20;;
3789;SDS011;1910;49.042;9.028;2022-07-06T06:08:47;5.80;;;4.47;;
3789;SDS011;1910;49.042;9.028;2022-07-06T06:11:13;4.80;;;3.40;;
3789;SDS011;1910;49.042;9.028;2022-07-06T06:13:38;4.53;;;4.13;;
3789;SDS011;1910;49.042;9.028;2022-07-06T06:16:04;12.30;;;4.87;;
3789;SDS011;1910;49.042;9.028;2022-07-06T06:18:30;5.00;;;3.23;;
3789;SDS011;1910;49.042;9.028;2022-07-06T06:20:55;4.07;;;3.30;;
3789;SDS011;1910;49.042;9.028;2022-07-06T06:23:21;4.80;;;3.73;;
3789;SDS011;1910;49.042;9.028;2022-07-06T06:25:46;4.40;;;3.60;;
3789;SDS011;1910;49.042;9.028;2022-07-06T06:28:12;11.17;;;4.00;;
3789;SDS011;1910;49.042;9.028;2022-07-06T06:30:38;4.83;;;4.00;;
3789;SDS011;1910;49.042;9.028;2022-07-06T06:33:25;5.20;;;2.93;;
3789;SDS011;1910;49.042;9.028;2022-07-06T06:35:51;4.40;;;3.20;;
3789;SDS011;1910;49.042;9.028;2022-07-06T06:38:18;6.83;;;3.30;;
3789;SDS011;1910;49.042;9.028;2022-07-06T06:40:45;5.17;;;3.27;;
3789;SDS011;1910;49.042;9.028;2022-07-06T06:43:11;5.07;;;3.90;;
3789;SDS011;1910;49.042;9.028;2022-07-06T06:45:37;8.13;;;3.50;;
3789;SDS011;1910;49.042;9.028;2022-07-06T06:48:02;3.87;;;3.57;;
3789;SDS011;1910;49.042;9.028;2022-07-06T06:50:29;3.37;;;3.07;;
3789;SDS011;1910;49.042;9.028;2022-07-06T06:52:54;5.30;;;3.97;;
3789;SDS011;1910;49.042;9.028;2022-07-06T06:55:20;5.00;;;3.57;;
3789;SDS011;1910;49.042;9.028;2022-07-06T06:57:45;5.37;;;3.40;;
3789;SDS011;1910;49.042;9.028;2022-07-06T07:00:11;8.10;;;3.50;;
3789;SDS011;1910;49.042;9.028;2022-07-06T07:02:37;8.90;;;4.23;;
3789;SDS011;1910;49.042;9.028;2022-07-06T07:05:04;6.90;;;3.53;;
3789;SDS011;1910;49.042;9.028;2022-07-06T07:07:30;6.27;;;3.70;;
3789;SDS011;1910;49.042;9.028;2022-07-06T07:09:55;8.00;;;3.10;;
3789;SDS011;1910;49.042;9.028;2022-07-06T07:12:21;8.70;;;3.80;;
3789;SDS011;1910;49.042;9.028;2022-07-06T07:14:46;5.50;;;3.43;;
3789;SDS011;1910;49.042;9.028;2022-07-06T07:17:12;3.17;;;2.80;;
3789;SDS011;1910;49.042;9.028;2022-07-06T07:19:38;9.20;;;3.00;;
3789;SDS011;1910;49.042;9.028;2022-07-06T07:22:04;5.17;;;2.67;;
3789;SDS011;1910;49.042;9.028;2022-07-06T07:24:29;6.10;;;3.00;;
3789;SDS011;1910;49.042;9.028;2022-07-06T07:26:55;5.17;;;3.13;;
3789;SDS011;1910;49.042;9.028;2022-07-06T07:29:21;4.53;;;2.70;;
3789;SDS011;1910;49.042;9.028;2022-07-06T07:31:46;4.23;;;2.87;;
3789;SDS011;1910;49.042;9.028;2022-07-06T07:34:12;7.17;;;3.80;;
3789;SDS011;1910;49.042;9.028;2022-07-06T07:36:38;3.63;;;2.93;;
3789;SDS011;1910;49.042;9.028;2022-07-06T07:39:03;4.00;;;2.80;;
3789;SDS011;1910;49.042;9.028;2022-07-06T07:41:29;3.33;;;2.80;;
3789;SDS011;1910;49.042;9.028;2022-07-06T07:43:55;3.80;;;2.83;;
3789;SDS011;1910;49.042;9.028;2022-07-06T07:46:20;7.70;;;3.40;;
3789;SDS011;1910;49.042;9.028;2022-07-06T07:48:46;6.10;;;2.90;;
3789;SDS011;1910;49.042;9.028;2022-07-06T07:51:11;4.00;;;2.80;;
3789;SDS011;1910;49.042;9.028;2022-07-06T07:53:37;4.67;;;2.60;;
3789;SDS011;1910;49.042;9.028;2022-07-06T07:56:02;5.60;;;3.30;;
3789;SDS011;1910;49.042;9.028;2022-07-06T07:58:28;3.80;;;2.80;;
3789;SDS011;1910;49.042;9.028;2022-07-06T08:00:54;4.90;;;2.40;;
3789;SDS011;1910;49.042;9.028;2022-07-06T08:03:19;8.37;;;3.67;;
3789;SDS011;1910;49.042;9.028;2022-07-06T08:05:45;2.90;;;2.40;;
3789;SDS011;1910;49.042;9.028;2022-07-06T08:08:12;6.87;;;3.00;;
3789;SDS011;1910;49.042;9.028;2022-07-06T08:10:38;4.23;;;3.20;;
3789;SDS011;1910;49.042;9.028;2022-07-06T08:13:03;4.63;;;2.70;;
3789;SDS011;1910;49.042;9.028;2022-07-06T08:15:29;6.83;;;3.10;;
3789;SDS011;1910;49.042;9.028;2022-07-06T08:17:56;9.07;;;2.70;;
3789;SDS011;1910;49.042;9.028;2022-07-06T08:20:21;18.50;;;2.90;;
3789;SDS011;1910;49.042;9.028;2022-07-06T08:22:47;6.67;;;2.60;;
3789;SDS011;1910;49.042;9.028;2022-07-06T08:25:12;5.00;;;2.80;;
3789;SDS011;1910;49.042;9.028;2022-07-06T08:27:38;4.30;;;2.40;;
3789;SDS011;1910;49.042;9.028;2022-07-06T08:30:04;4.23;;;2.90;;
3789;SDS011;1910;49.042;9.028;2022-07-06T08:32:30;5.60;;;3.33;;
3789;SDS011;1910;49.042;9.028;2022-07-06T08:34:56;5.30;;;3.27;;
3789;SDS011;1910;49.042;9.028;2022-07-06T08:37:21;6.43;;;3.63;;
3789;SDS011;1910;49.042;9.028;2022-07-06T08:39:47;5.40;;;3.17;;
3789;SDS011;1910;49.042;9.028;2022-07-06T08:42:12;5.97;;;2.77;;
3789;SDS011;1910;49.042;9.028;2022-07-06T08:44:41;13.03;;;3.77;;
3789;SDS011;1910;49.042;9.028;2022-07-06T08:47:07;12.17;;;3.30;;
3789;SDS011;1910;49.042;9.028;2022-07-06T08:49:35;4.90;;;3.30;;
3789;SDS011;1910;49.042;9.028;2022-07-06T08:52:02;5.23;;;4.57;;
3789;SDS011;1910;49.042;9.028;2022-07-06T08:54:29;5.33;;;4.93;;
3789;SDS011;1910;49.042;9.028;2022-07-06T08:56:55;5.23;;;4.83;;
3789;SDS011;1910;49.042;9.028;2022-07-06T08:59:21;4.87;;;4.40;;
3789;SDS011;1910;49.042;9.028;2022-07-06T09:01:46;4.10;;;3.60;;
3789;SDS011;1910;49.042;9.028;2022-07-06T09:04:14;3.80;;;3.10;;
3789;SDS011;1910;49.042;9.028;2022-07-06T09:06:42;4.33;;;3.80;;
3789;SDS011;1910;49.042;9.028;2022-07-06T09:09:10;3.73;;;3.40;;
3789;SDS011;1910;49.042;9.028;2022-07-06T09:11:39;5.60;;;4.03;;
3789;SDS011;1910;49.042;9.028;2022-07-06T09:14:04;11.27;;;3.57;;
3789;SDS011;1910;49.042;9.028;2022-07-06T09:16:30;5.87;;;4.43;;
3789;SDS011;1910;49.042;9.028;2022-07-06T09:18:56;5.87;;;4.00;;
3789;SDS011;1910;49.042;9.028;2022-07-06T09:21:23;4.30;;;3.40;;
3789;SDS011;1910;49.042;9.028;2022-07-06T09:23:57;6.50;;;3.90;;
3789;SDS011;1910;49.042;9.028;2022-07-06T09:26:25;4.93;;;3.90;;
3789;SDS011;1910;49.042;9.028;2022-07-06T09:28:51;8.27;;;4.03;;
3789;SDS011;1910;49.042;9.028;2022-07-06T09:31:19;3.90;;;3.40;;
3789;SDS011;1910;49.042;9.028;2022-07-06T09:34:01;5.53;;;3.50;;
3789;SDS011;1910;49.042;9.028;2022-07-06T09:36:40;8.73;;;4.37;;
3789;SDS011;1910;49.042;9.028;2022-07-06T09:41:55;6.43;;;5.20;;
3789;SDS011;1910;49.042;9.028;2022-07-06T09:44:25;7.47;;;3.80;;
3789;SDS011;1910;49.042;9.028;2022-07-06T09:46:53;6.50;;;4.10;;
3789;SDS011;1910;49.042;9.028;2022-07-06T09:49:21;4.23;;;3.77;;
3789;SDS011;1910;49.042;9.028;2022-07-06T09:51:48;6.40;;;4.90;;
3789;SDS011;1910;49.042;9.028;2022-07-06T09:54:16;4.73;;;3.53;;
3789;SDS011;1910;49.042;9.028;2022-07-06T09:56:44;5.90;;;3.70;;
3789;SDS011;1910;49.042;9.028;2022-07-06T09:59:15;9.37;;;4.07;;
3789;SDS011;1910;49.042;9.028;2022-07-06T10:01:42;8.23;;;4.47;;
3789;SDS011;1910;49.042;9.028;2022-07-06T10:04:09;9.90;;;3.77;;
3789;SDS011;1910;49.042;9.028;2022-07-06T10:06:40;6.43;;;4.00;;
3789;SDS011;1910;49.042;9.028;2022-07-06T10:09:07;4.63;;;4.00;;
3789;SDS011;1910;49.042;9.028;2022-07-06T10:11:34;3.70;;;3.40;;
3789;SDS011;1910;49.042;9.028;2022-07-06T10:14:03;3.83;;;3.00;;
3789;SDS011;1910;49.042;9.028;2022-07-06T10:16:31;3.87;;;3.57;;
3789;SDS011;1910;49.042;9.028;2022-07-06T10:18:58;9.03;;;3.57;;
3789;SDS011;1910;49.042;9.028;2022-07-06T10:21:26;8.03;;;3.70;;
3789;SDS011;1910;49.042;9.028;2022-07-06T10:23:51;4.97;;;3.90;;
3789;SDS011;1910;49.042;9.028;2022-07-06T10:26:18;3.90;;;3.33;;
3789;SDS011;1910;49.042;9.028;2022-07-06T10:28:48;7.40;;;3.73;;
3789;SDS011;1910;49.042;9.028;2022-07-06T10:31:15;8.23;;;5.07;;
3789;SDS011;1910;49.042;9.028;2022-07-06T10:33:42;9.83;;;5.23;;
3789;SDS011;1910;49.042;9.028;2022-07-06T10:36:09;7.97;;;4.10;;
3789;SDS011;1910;49.042;9.028;2022-07-06T10:38:35;4.77;;;4.27;;
3789;SDS011;1910;49.042;9.028;2022-07-06T10:41:02;8.87;;;5.63;;
3789;SDS011;1910;49.042;9.028;2022-07-06T10:48:40;5.50;;;3.60;;
3789;SDS011;1910;49.042;9.028;2022-07-06T10:51:07;9.63;;;4.73;;
3789;SDS011;1910;49.042;9.028;2022-07-06T10:53:34;7.50;;;3.90;;
3789;SDS011;1910;49.042;9.028;2022-07-06T10:58:48;4.97;;;4.50;;
3789;SDS011;1910;49.042;9.028;2022-07-06T11:01:18;7.67;;;4.87;;
3789;SDS011;1910;49.042;9.028;2022-07-06T11:03:46;10.13;;;3.73;;
3789;SDS011;1910;49.042;9.028;2022-07-06T11:06:33;9.27;;;4.33;;
3789;SDS011;1910;49.042;9.028;2022-07-06T11:09:04;5.87;;;4.20;;
3789;SDS011;1910;49.042;9.028;2022-07-06T11:14:04;14.73;;;5.10;;
3789;SDS011;1910;49.042;9.028;2022-07-06T11:16:34;11.50;;;4.97;;
3789;SDS011;1910;49.042;9.028;2022-07-06T11:19:26;8.90;;;4.10;;
3789;SDS011;1910;49.042;9.028;2022-07-06T11:21:53;10.80;;;4.47;;
3789;SDS011;1910;49.042;9.028;2022-07-06T11:26:50;7.57;;;4.40;;
3789;SDS011;1910;49.042;9.028;2022-07-06T11:29:17;6.57;;;4.37;;
3789;SDS011;1910;49.042;9.028;2022-07-06T11:31:48;8.73;;;4.40;;
3789;SDS011;1910;49.042;9.028;2022-07-06T11:34:22;5.87;;;4.07;;
3789;SDS011;1910;49.042;9.028;2022-07-06T11:36:56;4.20;;;3.60;;
3789;SDS011;1910;49.042;9.028;2022-07-06T11:39:25;4.53;;;4.13;;
3789;SDS011;1910;49.042;9.028;2022-07-06T11:41:55;7.63;;;4.60;;
3789;SDS011;1910;49.042;9.028;2022-07-06T11:44:21;10.37;;;3.80;;
3789;SDS011;1910;49.042;9.028;2022-07-06T11:46:47;3.83;;;3.30;;
3789;SDS011;1910;49.042;9.028;2022-07-06T11:49:13;7.17;;;3.70;;
3789;SDS011;1910;49.042;9.028;2022-07-06T11:51:39;11.40;;;4.33;;
3789;SDS011;1910;49.042;9.028;2022-07-06T11:56:36;4.23;;;3.83;;
3789;SDS011;1910;49.042;9.028;2022-07-06T11:59:03;11.10;;;5.10;;
3789;SDS011;1910;49.042;9.028;2022-07-06T12:01:29;4.57;;;3.80;;
3789;SDS011;1910;49.042;9.028;2022-07-06T12:03:59;4.50;;;3.60;;
3789;SDS011;1910;49.042;9.028;2022-07-06T12:06:26;5.80;;;3.40;;
3789;SDS011;1910;49.042;9.028;2022-07-06T12:08:54;3.53;;;2.70;;
3789;SDS011;1910;49.042;9.028;2022-07-06T12:11:21;4.30;;;3.33;;
3789;SDS011;1910;49.042;9.028;2022-07-06T12:13:50;4.93;;;3.07;;
3789;SDS011;1910;49.042;9.028;2022-07-06T12:16:18;4.00;;;3.67;;
3789;SDS011;1910;49.042;9.028;2022-07-06T12:18:45;9.80;;;3.33;;
3789;SDS011;1910;49.042;9.028;2022-07-06T12:21:16;4.00;;;3.00;;
3789;SDS011;1910;49.042;9.028;2022-07-06T12:23:44;5.17;;;3.40;;
3789;SDS011;1910;49.042;9.028;2022-07-06T12:26:12;4.87;;;3.43;;
3789;SDS011;1910;49.042;9.028;2022-07-06T12:28:39;5.50;;;3.53;;
3789;SDS011;1910;49.042;9.028;2022-07-06T12:31:05;2.90;;;2.57;;
3789;SDS011;1910;49.042;9.028;2022-07-06T12:33:31;3.50;;;2.60;;
3789;SDS011;1910;49.042;9.028;2022-07-06T12:35:57;3.83;;;2.30;;
3789;SDS011;1910;49.042;9.028;2022-07-06T12:38:33;4.63;;;3.07;;
3789;SDS011;1910;49.042;9.028;2022-07-06T12:40:58;3.83;;;2.80;;
3789;SDS011;1910;49.042;9.028;2022-07-06T12:48:57;5.53;;;2.90;;
3789;SDS011;1910;49.042;9.028;2022-07-06T12:51:24;7.40;;;2.97;;
3789;SDS011;1910;49.042;9.028;2022-07-06T12:53:50;3.63;;;2.60;;
3789;SDS011;1910;49.042;9.028;2022-07-06T12:56:17;3.30;;;2.70;;
3789;SDS011;1910;49.042;9.028;2022-07-06T12:58:56;2.93;;;2.50;;
3789;SDS011;1910;49.042;9.028;2022-07-06T13:01:23;6.10;;;2.70;;
3789;SDS011;1910;49.042;9.028;2022-07-06T13:03:53;8.20;;;3.53;;
3789;SDS011;1910;49.042;9.028;2022-07-06T13:06:30;3.00;;;2.70;;
3789;SDS011;1910;49.042;9.028;2022-07-06T13:08:58;6.20;;;3.10;;
3789;SDS011;1910;49.042;9.028;2022-07-06T13:11:23;9.27;;;2.97;;
3789;SDS011;1910;49.042;9.028;2022-07-06T13:13:49;6.30;;;2.83;;
3789;SDS011;1910;49.042;9.028;2022-07-06T13:16:14;8.53;;;3.03;;
3789;SDS011;1910;49.042;9.028;2022-07-06T13:18:40;3.87;;;2.40;;
3789;SDS011;1910;49.042;9.028;2022-07-06T13:21:11;2.90;;;2.20;;
3789;SDS011;1910;49.042;9.028;2022-07-06T13:23:37;4.27;;;2.70;;
3789;SDS011;1910;49.042;9.028;2022-07-06T13:26:02;8.57;;;2.80;;
3789;SDS011;1910;49.042;9.028;2022-07-06T13:28:31;3.10;;;2.60;;
3789;SDS011;1910;49.042;9.028;2022-07-06T13:30:57;7.40;;;3.30;;
3789;SDS011;1910;49.042;9.028;2022-07-06T13:33:22;3.47;;;2.80;;
3789;SDS011;1910;49.042;9.028;2022-07-06T13:35:48;4.23;;;2.10;;
3789;SDS011;1910;49.042;9.028;2022-07-06T13:38:15;4.00;;;2.90;;
3789;SDS011;1910;49.042;9.028;2022-07-06T13:40:41;6.43;;;2.30;;
3789;SDS011;1910;49.042;9.028;2022-07-06T13:43:08;5.60;;;2.20;;
3789;SDS011;1910;49.042;9.028;2022-07-06T13:45:33;4.27;;;3.10;;
3789;SDS011;1910;49.042;9.028;2022-07-06T13:47:59;2.57;;;2.37;;
3789;SDS011;1910;49.042;9.028;2022-07-06T13:50:24;4.83;;;2.43;;
3789;SDS011;1910;49.042;9.028;2022-07-06T13:52:51;3.50;;;2.63;;
3789;SDS011;1910;49.042;9.028;2022-07-06T13:55:17;4.00;;;2.50;;
3789;SDS011;1910;49.042;9.028;2022-07-06T13:57:42;4.27;;;2.90;;
3789;SDS011;1910;49.042;9.028;2022-07-06T14:00:08;3.93;;;3.00;;
3789;SDS011;1910;49.042;9.028;2022-07-06T14:02:34;4.97;;;2.57;;
3789;SDS011;1910;49.042;9.028;2022-07-06T14:05:00;8.70;;;3.07;;
3789;SDS011;1910;49.042;9.028;2022-07-06T14:07:25;4.13;;;2.70;;
3789;SDS011;1910;49.042;9.028;2022-07-06T14:09:52;6.23;;;2.47;;
3789;SDS011;1910;49.042;9.028;2022-07-06T14:12:17;4.77;;;2.97;;
3789;SDS011;1910;49.042;9.028;2022-07-06T14:14:44;4.67;;;2.50;;
3789;SDS011;1910;49.042;9.028;2022-07-06T14:17:09;8.83;;;2.77;;
3789;SDS011;1910;49.042;9.028;2022-07-06T14:19:35;2.70;;;2.40;;
3789;SDS011;1910;49.042;9.028;2022-07-06T14:22:00;3.10;;;2.20;;
3789;SDS011;1910;49.042;9.028;2022-07-06T14:24:25;6.50;;;2.40;;
3789;SDS011;1910;49.042;9.028;2022-07-06T14:26:51;5.37;;;2.07;;
3789;SDS011;1910;49.042;9.028;2022-07-06T14:29:16;3.57;;;2.20;;
3789;SDS011;1910;49.042;9.028;2022-07-06T14:31:42;5.47;;;1.73;;
3789;SDS011;1910;49.042;9.028;2022-07-06T14:34:08;4.20;;;2.13;;
3789;SDS011;1910;49.042;9.028;2022-07-06T14:36:36;3.57;;;2.47;;
3789;SDS011;1910;49.042;9.028;2022-07-06T14:39:03;2.43;;;2.10;;
3789;SDS011;1910;49.042;9.028;2022-07-06T14:41:29;4.80;;;2.50;;
3789;SDS011;1910;49.042;9.028;2022-07-06T14:43:54;4.50;;;2.70;;
3789;SDS011;1910;49.042;9.028;2022-07-06T14:46:23;3.90;;;2.30;;
3789;SDS011;1910;49.042;9.028;2022-07-06T14:48:49;2.03;;;1.83;;
3789;SDS011;1910;49.042;9.028;2022-07-06T14:51:14;4.73;;;2.10;;
3789;SDS011;1910;49.042;9.028;2022-07-06T14:53:40;8.70;;;2.83;;
3789;SDS011;1910;49.042;9.028;2022-07-06T14:56:06;9.13;;;1.93;;
3789;SDS011;1910;49.042;9.028;2022-07-06T14:58:33;7.13;;;2.43;;
3789;SDS011;1910;49.042;9.028;2022-07-06T15:00:58;4.17;;;2.20;;
3789;SDS011;1910;49.042;9.028;2022-07-06T15:03:24;3.20;;;2.60;;
3789;SDS011;1910;49.042;9.028;2022-07-06T15:05:50;2.23;;;1.93;;
3789;SDS011;1910;49.042;9.028;2022-07-06T15:08:16;8.73;;;2.20;;
3789;SDS011;1910;49.042;9.028;2022-07-06T15:10:42;6.63;;;2.17;;
3789;SDS011;1910;49.042;9.028;2022-07-06T15:13:08;2.30;;;2.00;;
3789;SDS011;1910;49.042;9.028;2022-07-06T15:15:35;4.37;;;2.17;;
3789;SDS011;1910;49.042;9.028;2022-07-06T15:18:01;2.33;;;1.80;;
3789;SDS011;1910;49.042;9.028;2022-07-06T15:20:26;6.37;;;2.13;;
3789;SDS011;1910;49.042;9.028;2022-07-06T15:22:53;2.57;;;2.27;;
3789;SDS011;1910;49.042;9.028;2022-07-06T15:25:18;2.87;;;2.10;;
3789;SDS011;1910;49.042;9.028;2022-07-06T15:27:44;4.27;;;2.17;;
3789;SDS011;1910;49.042;9.028;2022-07-06T15:30:10;2.30;;;2.10;;
3789;SDS011;1910;49.042;9.028;2022-07-06T15:32:36;2.90;;;1.97;;
3789;SDS011;1910;49.042;9.028;2022-07-06T15:35:12;4.93;;;1.90;;
3789;SDS011;1910;49.042;9.028;2022-07-06T15:37:38;2.30;;;2.10;;